Eviapetrol I — SY5401 — position and weather

sailwx.info

Track history (hours):
 
Tides and Currents Weather Stations Pressure Air Temp Water Temp Dewpoint Dewpoint Depression Visibility Wind Speed Wind Dir Waves Ship Positions

Eviapetrol I

Last reported at 2016-May-06 09:32 UTC. Time now 2016-May-06 13:02 UTC.
Position N 37°34' E 024°02'.

Length 75 m; draft 4.5 m.

Type: Tanker. MMSI: 240285000.

Date/timePositionNaut miles runAvg speedWind from/ knotsBaromVisibWave heightAir tempDewpointWater temp
2016-May-06 09:32N 37°34' E 024°02'1010.2
2016-May-06 08:33N 37°37' E 023°50'10 9.9
2016-May-06 07:33N 37°44' E 023°40'1110.6
2016-May-06 06:33N 37°54' E 023°36'8 8.3
2016-May-06 05:33N 38°01' E 023°32'0 0.1
2016-May-06 04:30N 38°01' E 023°32'0 0.0
2016-May-06 03:33N 38°01' E 023°32'0 0.0
2016-May-06 02:33N 38°01' E 023°32'1 1.5
2016-May-06 01:34N 38°01' E 023°34'2 1.5
2016-May-06 00:28N 38°02' E 023°36'0 0.0
2016-May-05 23:28N 38°02' E 023°36'0 0.0
2016-May-05 22:22N 38°02' E 023°36'0 0.0
2016-May-05 21:28N 38°02' E 023°36'0 0.0
2016-May-05 20:31N 38°02' E 023°36'0 0.0
2016-May-05 19:31N 38°02' E 023°36'0 0.0
2016-May-05 18:31N 38°02' E 023°36'0 0.0
2016-May-05 17:31N 38°02' E 023°36'0 0.0
2016-May-05 16:28N 38°02' E 023°36'0 0.0
2016-May-05 15:22N 38°02' E 023°36'0 0.0
2016-May-05 14:28N 38°02' E 023°36'0 0.0
2016-May-05 13:28N 38°02' E 023°36'0 0.0
2016-May-05 12:31N 38°02' E 023°36'0 0.0
2016-May-05 11:28N 38°02' E 023°36'1 0.7
2016-May-05 10:33N 38°01' E 023°35'2 2.0
2016-May-05 09:33N 38°01' E 023°32'0 0.0
2016-May-05 08:33N 38°01' E 023°32'0 0.0
2016-May-05 07:33N 38°01' E 023°32'0 0.1
2016-May-05 06:33N 38°01' E 023°32'6 6.0
2016-May-05 05:33N 37°56' E 023°35'1010.0
2016-May-05 04:33N 37°48' E 023°42'10 9.9
2016-May-05 03:33N 37°39' E 023°49'1210.8
2016-May-05 02:28N 37°37' E 024°04'1111.1
2016-May-05 01:31N 37°43' E 024°15'1111.1
2016-May-05 00:33N 37°49' E 024°25'1111.0
2016-May-04 23:34N 37°57' E 024°35'1111.1
2016-May-04 22:33N 38°05' E 024°45'1510.9
2016-May-04 21:12N 38°13' E 025°01'60 1.5
2016-May-03 04:33N 37°33' E 025°57'1110.6
2016-May-03 03:33N 37°24' E 025°51'1010.4
2016-May-03 02:33N 37°14' E 025°47'1110.6
2016-May-03 01:31N 37°03' E 025°45'1210.5
2016-May-03 00:25N 36°51' E 025°43'78 1.7
2016-May-01 03:07N 37°17' E 024°11'710.7
2016-May-01 02:26N 37°23' E 024°06'910.8
2016-May-01 01:33N 37°31' E 023°58'1010.4
2016-May-01 00:33N 37°37' E 023°48'1010.4
2016-Apr-30 23:33N 37°45' E 023°39'9 9.4
2016-Apr-30 22:33N 37°50' E 023°30'8 8.3
2016-Apr-30 21:33N 37°57' E 023°23'8 8.3
2016-Apr-30 20:33N 38°01' E 023°32'3 3.2
2016-Apr-30 19:33N 38°02' E 023°36'0 0.0
2016-Apr-30 18:31N 38°02' E 023°36'0 0.0
2016-Apr-30 17:31N 38°02' E 023°36'0 0.0
2016-Apr-30 16:31N 38°02' E 023°36'0 0.0
2016-Apr-30 15:31N 38°02' E 023°36'0 0.0
2016-Apr-30 14:31N 38°02' E 023°36'0 0.0
2016-Apr-30 13:31N 38°02' E 023°36'0 0.0
2016-Apr-30 12:31N 38°02' E 023°36'0 0.0
2016-Apr-30 11:31N 38°02' E 023°36'0 0.0
2016-Apr-30 10:28N 38°02' E 023°36'0 0.0
2016-Apr-30 09:25N 38°02' E 023°36'0 0.0
2016-Apr-30 08:31N 38°02' E 023°36'0 0.0
2016-Apr-30 07:31N 38°02' E 023°36'0 0.0
2016-Apr-30 06:28N 38°02' E 023°36'1 0.6
2016-Apr-30 05:33N 38°02' E 023°35'2 2.1
2016-Apr-30 04:33N 38°01' E 023°32'0 0.0
2016-Apr-30 03:33N 38°01' E 023°32'0 0.0
2016-Apr-30 02:33N 38°01' E 023°32'0 0.0
2016-Apr-30 01:33N 38°01' E 023°32'0 0.0
2016-Apr-30 00:33N 38°01' E 023°32'0 0.0
2016-Apr-29 23:33N 38°01' E 023°32'0 0.0
2016-Apr-29 22:33N 38°01' E 023°32'0 0.0
2016-Apr-29 21:33N 38°01' E 023°32'0 0.0
2016-Apr-29 20:33N 38°01' E 023°32'0 0.0
2016-Apr-29 19:33N 38°01' E 023°32'0 0.0
2016-Apr-29 18:33N 38°02' E 023°32'1 1.4
2016-Apr-29 17:34N 38°00' E 023°33'9 9.3
2016-Apr-29 16:33N 37°52' E 023°39'1111.2
2016-Apr-29 15:33N 37°42' E 023°45'1110.8
2016-Apr-29 14:33N 37°37' E 023°57'4011.4
2016-Apr-29 11:05N 37°23' E 024°44'611.5
2016-Apr-29 10:33N 37°21' E 024°51'1111.4
2016-Apr-29 09:33N 37°18' E 025°05'1111.4
2016-Apr-29 08:33N 37°17' E 025°19'1111.4
2016-Apr-29 07:33N 37°15' E 025°33'1111.0
2016-Apr-29 06:33N 37°11' E 025°46'1110.9
2016-Apr-29 05:32N 37°06' E 025°58'1211.0
2016-Apr-29 04:28N 36°59' E 026°11'1011.0
2016-Apr-29 03:33N 36°54' E 026°21'2211.0
2016-Apr-29 01:33N 36°42' E 026°45'1110.9
2016-Apr-29 00:33N 36°36' E 026°56'  
Track history (hours):
 
Tides and Currents Weather Stations Pressure Air Temp Water Temp Dewpoint Dewpoint Depression Visibility Wind Speed Wind Dir Waves Ship Positions

Eviapetrol I

Last reported at 2016-May-06 09:32 UTC. Time now 2016-May-06 13:03 UTC.
Position N 37°34' E 024°02'.

Length 75 m; draft 4.5 m.

Type: Tanker. MMSI: 240285000.

Date/timePositionNaut miles runAvg speedWind from/ knotsBaromVisibWave heightAir tempDewpointWater temp
2016-May-06 09:32N 37°34' E 024°02'1010.2
2016-May-06 08:33N 37°37' E 023°50'10 9.9
2016-May-06 07:33N 37°44' E 023°40'1110.6
2016-May-06 06:33N 37°54' E 023°36'8 8.3
2016-May-06 05:33N 38°01' E 023°32'0 0.1
2016-May-06 04:30N 38°01' E 023°32'0 0.0
2016-May-06 03:33N 38°01' E 023°32'0 0.0
2016-May-06 02:33N 38°01' E 023°32'1 1.5
2016-May-06 01:34N 38°01' E 023°34'2 1.5
2016-May-06 00:28N 38°02' E 023°36'0 0.0
2016-May-05 23:28N 38°02' E 023°36'0 0.0
2016-May-05 22:22N 38°02' E 023°36'0 0.0
2016-May-05 21:28N 38°02' E 023°36'0 0.0
2016-May-05 20:31N 38°02' E 023°36'0 0.0
2016-May-05 19:31N 38°02' E 023°36'0 0.0
2016-May-05 18:31N 38°02' E 023°36'0 0.0
2016-May-05 17:31N 38°02' E 023°36'0 0.0
2016-May-05 16:28N 38°02' E 023°36'0 0.0
2016-May-05 15:22N 38°02' E 023°36'0 0.0
2016-May-05 14:28N 38°02' E 023°36'0 0.0
2016-May-05 13:28N 38°02' E 023°36'0 0.0
2016-May-05 12:31N 38°02' E 023°36'0 0.0
2016-May-05 11:28N 38°02' E 023°36'1 0.7
2016-May-05 10:33N 38°01' E 023°35'2 2.0
2016-May-05 09:33N 38°01' E 023°32'0 0.0
2016-May-05 08:33N 38°01' E 023°32'0 0.0
2016-May-05 07:33N 38°01' E 023°32'0 0.1
2016-May-05 06:33N 38°01' E 023°32'6 6.0
2016-May-05 05:33N 37°56' E 023°35'1010.0
2016-May-05 04:33N 37°48' E 023°42'10 9.9
2016-May-05 03:33N 37°39' E 023°49'1210.8
2016-May-05 02:28N 37°37' E 024°04'1111.1
2016-May-05 01:31N 37°43' E 024°15'1111.1
2016-May-05 00:33N 37°49' E 024°25'1111.0
2016-May-04 23:34N 37°57' E 024°35'1111.1
2016-May-04 22:33N 38°05' E 024°45'1510.9
2016-May-04 21:12N 38°13' E 025°01'60 1.5
2016-May-03 04:33N 37°33' E 025°57'1110.6
2016-May-03 03:33N 37°24' E 025°51'1010.4
2016-May-03 02:33N 37°14' E 025°47'1110.6
2016-May-03 01:31N 37°03' E 025°45'1210.5
2016-May-03 00:25N 36°51' E 025°43'78 1.7
2016-May-01 03:07N 37°17' E 024°11'710.7
2016-May-01 02:26N 37°23' E 024°06'910.8
2016-May-01 01:33N 37°31' E 023°58'1010.4
2016-May-01 00:33N 37°37' E 023°48'1010.4
2016-Apr-30 23:33N 37°45' E 023°39'9 9.4
2016-Apr-30 22:33N 37°50' E 023°30'8 8.3
2016-Apr-30 21:33N 37°57' E 023°23'8 8.3
2016-Apr-30 20:33N 38°01' E 023°32'3 3.2
2016-Apr-30 19:33N 38°02' E 023°36'0 0.0
2016-Apr-30 18:31N 38°02' E 023°36'0 0.0
2016-Apr-30 17:31N 38°02' E 023°36'0 0.0
2016-Apr-30 16:31N 38°02' E 023°36'0 0.0
2016-Apr-30 15:31N 38°02' E 023°36'0 0.0
2016-Apr-30 14:31N 38°02' E 023°36'0 0.0
2016-Apr-30 13:31N 38°02' E 023°36'0 0.0
2016-Apr-30 12:31N 38°02' E 023°36'0 0.0
2016-Apr-30 11:31N 38°02' E 023°36'0 0.0
2016-Apr-30 10:28N 38°02' E 023°36'0 0.0
2016-Apr-30 09:25N 38°02' E 023°36'0 0.0
2016-Apr-30 08:31N 38°02' E 023°36'0 0.0
2016-Apr-30 07:31N 38°02' E 023°36'0 0.0
2016-Apr-30 06:28N 38°02' E 023°36'1 0.6
2016-Apr-30 05:33N 38°02' E 023°35'2 2.1
2016-Apr-30 04:33N 38°01' E 023°32'0 0.0
2016-Apr-30 03:33N 38°01' E 023°32'0 0.0
2016-Apr-30 02:33N 38°01' E 023°32'0 0.0
2016-Apr-30 01:33N 38°01' E 023°32'0 0.0
2016-Apr-30 00:33N 38°01' E 023°32'0 0.0
2016-Apr-29 23:33N 38°01' E 023°32'0 0.0
2016-Apr-29 22:33N 38°01' E 023°32'0 0.0
2016-Apr-29 21:33N 38°01' E 023°32'0 0.0
2016-Apr-29 20:33N 38°01' E 023°32'0 0.0
2016-Apr-29 19:33N 38°01' E 023°32'0 0.0
2016-Apr-29 18:33N 38°02' E 023°32'1 1.4
2016-Apr-29 17:34N 38°00' E 023°33'9 9.3
2016-Apr-29 16:33N 37°52' E 023°39'1111.2
2016-Apr-29 15:33N 37°42' E 023°45'1110.8
2016-Apr-29 14:33N 37°37' E 023°57'4011.4
2016-Apr-29 11:05N 37°23' E 024°44'611.5
2016-Apr-29 10:33N 37°21' E 024°51'1111.4
2016-Apr-29 09:33N 37°18' E 025°05'1111.4
2016-Apr-29 08:33N 37°17' E 025°19'1111.4
2016-Apr-29 07:33N 37°15' E 025°33'1111.0
2016-Apr-29 06:33N 37°11' E 025°46'1110.9
2016-Apr-29 05:32N 37°06' E 025°58'1211.0
2016-Apr-29 04:28N 36°59' E 026°11'1011.0
2016-Apr-29 03:33N 36°54' E 026°21'2211.0
2016-Apr-29 01:33N 36°42' E 026°45'1110.9
2016-Apr-29 00:33N 36°36' E 026°56'  

Dump ship's entire track history